Terminal Aerodrome Forecast
Issued by NWS Wichita, KS

Home | Current Version | Previous Version | Text Only | Print | Product List | Glossary On
Versions: 1 2 3 4 5 6 7 8 9 10 11 12 13
724
FTUS43 KICT 032323
TAFICT
TAF
KICT 032323Z 0400/0424 14004KT 5SM -RA OVC035
     FM040300 VRB03KT 5SM -RA OVC015
     FM040600 VRB03KT 2SM -DZ OVC007
     FM041500 31005KT P6SM SCT110=

USA.gov is the U.S. government's official web portal to all federal, state and local government web resources and services.